New Orleans, Louisiana
Traffic Map
Current Weather Conditions
New Orleans, Louisiana
Few Clouds
Few Clouds
70°
Feels Like: 70°
Wind Chill: 70° Ceiling: Unl
Heat Index: 70° Visibility: 10mi
Dew Point: 60° Wind: 9mph
Humidity: 71% Direction: 180° (S)
Pressure: 29.76in Gusts: 0mph
Raw Report DataKNEW 260153Z 18008KT 10SM FEW033 21/16 A2976 RMK AO2 SLP072 T02110156
Traffic Incident Summary
Active as of:
Severity:
Category:
InformationThere was an issue retrieving the traffic information for this location. Please try a different location or try again shortly.
Advertisements
Track Severe Weather on mobile